Terminal Aerodrome Forecast
Issued by NWS

Home | Current Version | Previous Version | Text Only | Print | Product List | Glossary On
Versions: 1 2 3 4 5 6 7 8 9 10 11 12 13 14 15
000
FTUS45 KSLC 250526
TAFLGU
TAF
KLGU 250526Z 2506/2606 34007KT P6SM VCSH SCT040 BKN080
     FM251200 VRB04KT P6SM SCT080 SCT120
     FM251800 33006KT P6SM SCT080 BKN150
     FM260300 VRB04KT P6SM SCT080 SCT120=

USA.gov is the U.S. government's official web portal to all federal, state and local government web resources and services.